createdAt,value
2019-02-11T00:01:06.988Z,94516.32
2019-02-11T00:03:59.749Z,94508.91
2019-02-11T00:06:48.630Z,94507.97
2019-02-11T00:09:38.457Z,94509.25
2019-02-11T00:12:28.146Z,94509.57
2019-02-11T00:15:17.817Z,94513.95
2019-02-11T00:18:07.844Z,94526.20
2019-02-11T00:20:57.513Z,94510.62
2019-02-11T00:23:47.259Z,94520.29
2019-02-11T00:26:36.953Z,94527.53
2019-02-11T00:29:26.734Z,94535.77
2019-02-11T00:35:25.526Z,94561.51
2019-02-11T00:38:13.670Z,94555.56
2019-02-11T00:41:04.161Z,94540.17
2019-02-11T00:44:13.310Z,94543.09
2019-02-11T00:50:50.934Z,94547.09
2019-02-11T00:53:40.446Z,94548.55
2019-02-11T00:56:29.862Z,94550.33
2019-02-11T00:59:20.965Z,94553.89
2019-02-11T01:02:11.073Z,94560.50
2019-02-11T01:05:01.408Z,94562.27
2019-02-11T01:07:51.462Z,94558.73
2019-02-11T01:10:41.372Z,94568.38
2019-02-11T01:13:30.810Z,94561.81
2019-02-11T01:16:20.492Z,94577.73
2019-02-11T01:19:09.918Z,94577.24
2019-02-11T01:22:00.260Z,94571.12
2019-02-11T01:24:49.937Z,94580.59
2019-02-11T01:27:39.438Z,94585.45
2019-02-11T01:30:28.865Z,94575.16
2019-02-11T01:33:19.137Z,94579.64
2019-02-11T01:36:08.574Z,94578.21
2019-02-11T01:38:58.014Z,94593.81
2019-02-11T01:41:47.438Z,94605.39
2019-02-11T01:44:37.100Z,94602.97
2019-02-11T01:47:26.519Z,94603.30
2019-02-11T01:50:16.429Z,94607.46
2019-02-11T01:53:24.997Z,94592.38
2019-02-11T01:56:15.065Z,94589.45
2019-02-11T01:59:04.847Z,94606.66
2019-02-11T02:01:54.897Z,94601.38
2019-02-11T02:04:44.666Z,94602.00
2019-02-11T02:07:34.192Z,94611.67
2019-02-11T02:10:24.132Z,94610.20
2019-02-11T02:13:14.630Z,94615.98
2019-02-11T02:16:04.301Z,94625.33
2019-02-11T02:18:53.905Z,94620.50
2019-02-11T02:21:44.001Z,94636.41
2019-02-11T02:24:33.412Z,94625.80
2019-02-11T02:29:53.960Z,94619.95
2019-02-11T02:32:43.668Z,94621.59
2019-02-11T02:35:33.446Z,94633.01
2019-02-11T02:38:23.533Z,94645.56
2019-02-11T02:41:13.284Z,94638.08
2019-02-11T02:44:03.276Z,94645.94
2019-02-11T02:46:52.681Z,94643.86
2019-02-11T02:49:42.121Z,94649.16
2019-02-11T02:52:50.745Z,94654.00
2019-02-11T02:55:40.938Z,94644.66
2019-02-11T02:59:10.029Z,94653.50
2019-02-11T03:02:00.208Z,94650.16
2019-02-11T03:04:50.183Z,94659.63
2019-02-11T03:07:39.735Z,94643.27
2019-02-11T03:10:29.240Z,94658.54
2019-02-11T03:13:18.887Z,94649.70
2019-02-11T03:16:08.604Z,94679.11
2019-02-11T03:18:58.821Z,94669.93
2019-02-11T03:21:46.893Z,94668.83
2019-02-11T03:24:55.718Z,94673.64
2019-02-11T03:27:45.431Z,94691.92
2019-02-11T03:30:36.132Z,94710.56
2019-02-11T03:33:25.855Z,94720.33
2019-02-11T03:36:15.610Z,94737.50
2019-02-11T03:39:44.772Z,94745.66
2019-02-11T03:42:54.551Z,94750.94
2019-02-11T03:48:40.070Z,94782.40
2019-02-11T03:51:29.831Z,94769.72
2019-02-11T03:54:19.512Z,94775.99
2019-02-11T03:57:09.279Z,94782.91
2019-02-11T03:59:59.002Z,94766.69
2019-02-11T04:02:48.481Z,94775.07
2019-02-11T04:05:38.317Z,94773.47
2019-02-11T04:08:28.901Z,94764.16
2019-02-11T04:11:37.559Z,94753.05
2019-02-11T04:14:27.222Z,94753.05
2019-02-11T04:17:36.216Z,94741.31
2019-02-11T04:20:25.924Z,94745.17
2019-02-11T04:23:15.351Z,94753.03
2019-02-11T04:26:05.289Z,94741.47
2019-02-11T04:28:54.962Z,94766.03
2019-02-11T04:31:44.734Z,94768.92
2019-02-11T04:34:37.726Z,94772.93
2019-02-11T04:37:27.192Z,94784.49
2019-02-11T04:40:16.860Z,94796.22
2019-02-11T04:43:06.779Z,94810.48
2019-02-11T04:45:56.528Z,94816.87
2019-02-11T04:48:45.950Z,94838.01
2019-02-11T04:51:35.425Z,94838.01
2019-02-11T04:54:24.881Z,94838.01
2019-02-11T04:57:15.626Z,94842.84
2019-02-11T05:00:24.360Z,94838.97
2019-02-11T05:03:33.604Z,94834.95
2019-02-11T05:06:42.481Z,94848.45
2019-02-11T05:09:32.717Z,94848.45
2019-02-11T05:12:22.493Z,94851.82
2019-02-11T05:15:12.160Z,94864.02
2019-02-11T05:18:01.891Z,94862.73
2019-02-11T05:21:10.524Z,94870.61
2019-02-11T05:24:19.170Z,94862.73
2019-02-11T05:27:09.682Z,94862.73
2019-02-11T05:29:59.379Z,94881.36
2019-02-11T05:32:49.122Z,94882.48
2019-02-11T05:35:39.033Z,94868.03
2019-02-11T05:38:28.730Z,94874.93
2019-02-11T05:41:19.000Z,94891.40
2019-02-11T05:44:27.571Z,94886.25
2019-02-11T05:47:17.673Z,94894.39
2019-02-11T05:50:18.716Z,94903.62
2019-02-11T05:53:08.428Z,94903.62
2019-02-11T05:55:58.343Z,94923.27
2019-02-11T05:58:47.787Z,94928.31
2019-02-11T06:01:37.209Z,94934.50
2019-02-11T06:04:26.983Z,94922.42
2019-02-11T06:07:16.745Z,94919.73
2019-02-11T06:10:06.904Z,94939.59
2019-02-11T06:12:56.590Z,94951.94
2019-02-11T06:16:05.234Z,94965.20
2019-02-11T06:18:55.397Z,94965.20
2019-02-11T06:24:53.787Z,94987.27
2019-02-11T06:28:02.429Z,94992.27
2019-02-11T06:31:11.320Z,95008.87
2019-02-11T06:34:00.762Z,95008.87
2019-02-11T06:36:50.813Z,95012.02
2019-02-11T06:39:59.885Z,95014.11
2019-02-11T06:42:50.217Z,95019.19
2019-02-11T06:45:39.868Z,95018.89
2019-02-11T06:48:29.289Z,95021.08
2019-02-11T06:51:19.239Z,95023.43
2019-02-11T06:54:09.360Z,95045.50
2019-02-11T06:57:18.243Z,95061.54
2019-02-11T07:00:09.781Z,95061.54
2019-02-11T07:02:59.589Z,95071.80
2019-02-11T07:05:49.851Z,95075.57
2019-02-11T07:08:40.090Z,95086.02
2019-02-11T07:11:30.138Z,95100.45
2019-02-11T07:14:19.850Z,95099.65
2019-02-11T07:17:10.136Z,95110.84
2019-02-11T07:20:00.232Z,95131.83
2019-02-11T07:22:50.054Z,95151.13
2019-02-11T07:25:39.790Z,95153.70
2019-02-11T07:28:29.480Z,95153.70
2019-02-11T07:31:19.201Z,95160.72
2019-02-11T07:34:09.147Z,95165.84
2019-02-11T07:36:58.699Z,95168.32
2019-02-11T07:39:48.269Z,95167.59
2019-02-11T07:42:56.962Z,95167.04
2019-02-11T07:46:05.629Z,95175.00
2019-02-11T07:48:55.063Z,95186.34
2019-02-11T07:51:45.084Z,95187.92
2019-02-11T07:54:34.856Z,95196.56
2019-02-11T07:57:24.643Z,95199.41
2019-02-11T08:00:14.152Z,95205.48
2019-02-11T08:03:03.938Z,95204.11
2019-02-11T08:05:53.422Z,95208.85
2019-02-11T08:08:43.688Z,95218.02
2019-02-11T08:11:33.433Z,95222.34
2019-02-11T08:14:22.857Z,95223.28
2019-02-11T08:17:12.279Z,95239.66
2019-02-11T08:20:02.632Z,95246.49
2019-02-11T08:22:52.769Z,95246.41
2019-02-11T08:25:43.119Z,95248.91
2019-02-11T08:28:32.818Z,95263.28
2019-02-11T08:31:22.750Z,95273.73
2019-02-11T08:34:13.240Z,95281.30
2019-02-11T08:37:02.988Z,95287.73
2019-02-11T08:39:52.661Z,95295.02
2019-02-11T08:42:42.373Z,95302.11
2019-02-11T08:45:31.825Z,95313.36
2019-02-11T08:48:21.504Z,95308.98
2019-02-11T08:51:11.258Z,95323.34
2019-02-11T08:54:00.748Z,95333.05
2019-02-11T08:56:50.852Z,95340.70
2019-02-11T08:59:40.367Z,95346.77
2019-02-11T09:02:30.354Z,95366.19
2019-02-11T09:05:19.777Z,95367.13
2019-02-11T09:08:09.257Z,95381.14
2019-02-11T09:10:59.061Z,95380.89
2019-02-11T09:13:52.622Z,95381.33
2019-02-11T09:16:42.712Z,95383.02
2019-02-11T09:19:32.373Z,95389.48
2019-02-11T09:22:22.540Z,95395.24
2019-02-11T09:25:31.434Z,95389.44
2019-02-11T09:28:21.500Z,95396.52
2019-02-11T09:31:11.466Z,95397.37
2019-02-11T09:34:01.240Z,95410.07
2019-02-11T09:36:51.473Z,95407.98
2019-02-11T09:39:40.905Z,95419.98
2019-02-11T09:42:30.867Z,95420.45
2019-02-11T09:45:21.328Z,95422.59
2019-02-11T09:48:10.849Z,95427.47
2019-02-11T09:51:00.832Z,95429.46
2019-02-11T09:54:09.628Z,95431.97
2019-02-11T09:56:59.051Z,95439.73
2019-02-11T09:59:49.156Z,95449.95
2019-02-11T10:02:39.199Z,95456.05
2019-02-11T10:05:48.328Z,95462.84
2019-02-11T10:08:38.318Z,95460.20
2019-02-11T10:11:28.249Z,95472.48
2019-02-11T10:14:17.980Z,95478.16
2019-02-11T10:17:08.514Z,95484.62
2019-02-11T10:19:58.205Z,95487.60
2019-02-11T10:22:48.047Z,95486.87
2019-02-11T10:25:37.817Z,95500.62
2019-02-11T10:28:27.529Z,95503.23
2019-02-11T10:31:17.291Z,95501.69
2019-02-11T10:34:06.710Z,95509.38
2019-02-11T10:36:56.817Z,95510.24
2019-02-11T10:39:46.553Z,95514.11
2019-02-11T10:42:36.693Z,95521.86
2019-02-11T10:45:26.299Z,95527.11
2019-02-11T10:48:15.807Z,95524.97
2019-02-11T10:51:06.838Z,95537.11
2019-02-11T10:53:55.356Z,95527.40
2019-02-11T10:56:43.573Z,95536.50
2019-02-11T10:59:33.355Z,95539.17
2019-02-11T11:02:22.858Z,95546.60
2019-02-11T11:05:12.881Z,95548.69
2019-02-11T11:08:02.367Z,95552.09
2019-02-11T11:11:11.797Z,95546.89
2019-02-11T11:14:01.609Z,95546.89
2019-02-11T11:16:51.470Z,95563.13
2019-02-11T11:19:41.871Z,95560.51
2019-02-11T11:22:31.300Z,95571.03
2019-02-11T11:25:20.971Z,95576.00
2019-02-11T11:28:10.489Z,95576.55
2019-02-11T11:31:00.376Z,95582.85
2019-02-11T11:33:50.083Z,95587.54
2019-02-11T11:36:40.690Z,95596.39
2019-02-11T11:39:30.530Z,95603.37
2019-02-11T11:42:31.907Z,95607.19
2019-02-11T11:45:33.239Z,95614.49
2019-02-11T11:48:35.334Z,95615.44
2019-02-11T11:51:36.795Z,95616.56
2019-02-11T11:54:26.318Z,95616.56
2019-02-11T11:57:35.467Z,95618.00
2019-02-11T12:00:26.468Z,95618.00
2019-02-11T12:03:14.612Z,95620.98
2019-02-11T12:06:04.923Z,95635.82
2019-02-11T12:08:59.066Z,95647.15
2019-02-11T12:11:46.421Z,95646.41
2019-02-11T12:14:36.149Z,95660.84
2019-02-11T12:17:45.244Z,95661.61
2019-02-11T12:20:34.778Z,95661.61
2019-02-11T12:23:25.739Z,95662.22
2019-02-11T12:29:32.373Z,95670.12
2019-02-11T12:32:21.914Z,95681.31
2019-02-11T12:35:12.567Z,95684.00
2019-02-11T12:38:21.559Z,95686.66
2019-02-11T12:41:10.972Z,95686.66
2019-02-11T12:44:00.567Z,95689.81
2019-02-11T12:46:50.149Z,95697.98
2019-02-11T12:49:40.404Z,95703.62
2019-02-11T12:52:49.282Z,95713.05
2019-02-11T12:55:38.730Z,95713.05
2019-02-11T12:58:28.766Z,95710.62
2019-02-11T13:01:18.552Z,95708.27
2019-02-11T13:04:08.468Z,95707.20
2019-02-11T13:06:58.193Z,95715.83
2019-02-11T13:09:47.697Z,95731.52
2019-02-11T13:12:37.706Z,95738.57
2019-02-11T13:15:56.613Z,95747.58
2019-02-11T13:18:19.302Z,95746.98
2019-02-11T13:21:11.563Z,95752.97
2019-02-11T13:24:02.184Z,95754.46
2019-02-11T13:26:51.936Z,95767.41
2019-02-11T13:29:42.947Z,95776.03
2019-02-11T13:32:32.630Z,95777.84
2019-02-11T13:35:22.372Z,95777.37
2019-02-11T13:38:12.118Z,95785.84
2019-02-11T13:41:02.697Z,95789.56
2019-02-11T13:44:03.990Z,95792.50
2019-02-11T13:46:53.826Z,95792.50
2019-02-11T13:49:46.525Z,95793.48
2019-02-11T13:52:35.643Z,95793.27
2019-02-11T13:55:30.003Z,95808.53
2019-02-11T13:58:35.978Z,95814.86
2019-02-11T14:01:45.012Z,95813.28
2019-02-11T14:04:34.781Z,95813.28
2019-02-11T14:07:43.517Z,95822.99
2019-02-11T14:10:33.599Z,95822.99
2019-02-11T14:14:00.581Z,95827.52
2019-02-11T14:16:54.546Z,95827.52
2019-02-11T14:22:39.784Z,95848.86
2019-02-11T14:25:42.236Z,95859.20
2019-02-11T14:28:21.393Z,95863.19
2019-02-11T14:31:12.047Z,95869.26
2019-02-11T14:34:01.731Z,95866.52
2019-02-11T14:36:51.433Z,95858.83
2019-02-11T14:39:52.365Z,95883.45
2019-02-11T14:43:01.201Z,95888.59
2019-02-11T14:45:50.603Z,95888.59
2019-02-11T14:48:41.065Z,95889.19
2019-02-11T14:51:31.554Z,95889.28
2019-02-11T14:54:19.655Z,95905.09
2019-02-11T14:57:11.366Z,95911.13
2019-02-11T15:00:00.474Z,95903.34
2019-02-11T15:02:50.052Z,95912.07
2019-02-11T15:05:58.854Z,95928.59
2019-02-11T15:08:48.383Z,95928.59
2019-02-11T15:11:57.134Z,95941.08
2019-02-11T15:14:47.125Z,95941.08
2019-02-11T15:17:55.778Z,95948.75
2019-02-11T15:20:46.154Z,95948.75
2019-02-11T15:26:30.847Z,95954.56
2019-02-11T15:29:20.817Z,95966.12
2019-02-11T15:32:10.626Z,95954.74
2019-02-11T15:35:19.270Z,95976.58
2019-02-11T15:38:08.692Z,95976.58
2019-02-11T15:40:58.372Z,95978.16
2019-02-11T15:43:48.359Z,95985.64
2019-02-11T15:46:38.412Z,95980.73
2019-02-11T15:49:28.880Z,95994.25
2019-02-11T15:52:21.416Z,95996.66
2019-02-11T15:55:13.174Z,96001.27
2019-02-11T15:58:03.422Z,96000.93
2019-02-11T16:00:52.937Z,96007.85
2019-02-11T16:03:43.069Z,96013.55
2019-02-11T16:06:38.056Z,96024.11
2019-02-11T16:09:24.883Z,96033.34
2019-02-11T16:12:33.512Z,96040.91
2019-02-11T16:15:23.895Z,96040.91
2019-02-11T16:18:13.329Z,96046.86
2019-02-11T16:21:03.060Z,96046.19
2019-02-11T16:24:17.518Z,96047.50
2019-02-11T16:27:29.246Z,96061.95
2019-02-11T16:30:19.393Z,96061.95
2019-02-11T16:33:09.591Z,96067.45
2019-02-11T16:35:59.059Z,96068.62
2019-02-11T16:38:48.854Z,96065.34
2019-02-11T16:41:38.567Z,96075.59
2019-02-11T16:44:47.285Z,96085.51
2019-02-11T16:47:37.539Z,96085.51
2019-02-11T16:50:28.276Z,96084.36
2019-02-11T16:53:18.898Z,96077.34
2019-02-11T16:56:08.639Z,96082.14
2019-02-11T16:58:58.315Z,96082.14
2019-02-11T17:01:48.360Z,96089.36
2019-02-11T17:04:38.599Z,96098.11
2019-02-11T17:07:28.554Z,96097.08
2019-02-11T17:10:18.325Z,96103.61
2019-02-11T17:13:07.761Z,96113.52
2019-02-11T17:15:57.721Z,96123.78
2019-02-11T17:18:47.524Z,96123.78
2019-02-11T17:21:56.539Z,96143.41
2019-02-11T17:24:47.328Z,96143.41
2019-02-11T17:27:37.085Z,96154.70
2019-02-11T17:30:27.452Z,96152.13
2019-02-11T17:33:36.153Z,96165.80
2019-02-11T17:36:26.196Z,96159.37
2019-02-11T17:39:15.687Z,96161.83
2019-02-11T17:42:05.451Z,96171.61
2019-02-11T17:44:56.022Z,96159.84
2019-02-11T17:47:44.684Z,96159.84
2019-02-11T17:50:34.530Z,96167.77
2019-02-11T17:53:24.597Z,96164.63
2019-02-11T17:56:14.380Z,96172.20
2019-02-11T17:59:03.997Z,96177.81
2019-02-11T18:01:57.781Z,96184.58
2019-02-11T18:04:48.574Z,96190.64
2019-02-11T18:08:17.196Z,96183.28
2019-02-11T18:11:07.636Z,96183.28
2019-02-11T18:13:57.715Z,96200.55
2019-02-11T18:16:47.193Z,96199.17
2019-02-11T18:19:37.832Z,96189.83
2019-02-11T18:22:28.107Z,96195.19
2019-02-11T18:25:18.696Z,96190.97
2019-02-11T18:28:08.427Z,96195.18
2019-02-11T18:30:58.356Z,96207.52
2019-02-11T18:33:48.607Z,96207.52
2019-02-11T18:36:38.500Z,96209.41
2019-02-11T18:39:47.187Z,96221.42
2019-02-11T18:42:37.409Z,96227.25
2019-02-11T18:45:27.649Z,96229.81
2019-02-11T18:48:17.280Z,96226.11
2019-02-11T18:51:26.007Z,96229.72
2019-02-11T18:54:16.680Z,96229.72
2019-02-11T18:57:06.393Z,96233.01
2019-02-11T18:59:55.821Z,96237.44
2019-02-11T19:02:45.602Z,96237.44
2019-02-11T19:05:35.127Z,96255.73
2019-02-11T19:08:24.672Z,96255.73
2019-02-11T19:11:14.514Z,96278.02
2019-02-11T19:14:04.393Z,96268.66
2019-02-11T19:16:54.132Z,96275.42
2019-02-11T19:19:43.853Z,96275.42
2019-02-11T19:22:34.119Z,96277.75
2019-02-11T19:25:23.849Z,96277.75
2019-02-11T19:28:13.898Z,96286.77
2019-02-11T19:31:04.037Z,96295.02
2019-02-11T19:33:53.889Z,96296.37
2019-02-11T19:37:02.648Z,96304.19
2019-02-11T19:39:52.808Z,96304.19
2019-02-11T19:42:42.869Z,96295.45
2019-02-11T19:45:32.702Z,96294.04
2019-02-11T19:48:23.002Z,96306.05
2019-02-11T19:51:25.318Z,96297.89
2019-02-11T19:54:04.804Z,96308.14
2019-02-11T19:56:54.525Z,96315.25
2019-02-11T19:59:44.745Z,96316.42
2019-02-11T20:03:15.665Z,96321.78
2019-02-11T20:06:06.426Z,96324.19
2019-02-11T20:08:56.280Z,96332.05
2019-02-11T20:11:46.073Z,96335.73
2019-02-11T20:14:36.080Z,96330.65
2019-02-11T20:17:26.489Z,96338.45
2019-02-11T20:20:18.392Z,96349.77
2019-02-11T20:23:08.438Z,96346.05
2019-02-11T20:25:58.403Z,96364.23
2019-02-11T20:28:49.157Z,96360.68
2019-02-11T20:31:39.295Z,96367.84
2019-02-11T20:34:29.491Z,96365.97
2019-02-11T20:37:19.834Z,96368.53
2019-02-11T20:40:11.759Z,96379.34
2019-02-11T20:43:02.038Z,96380.73
2019-02-11T20:45:52.503Z,96388.13
2019-02-11T20:49:01.439Z,96401.89
2019-02-11T20:51:51.514Z,96401.89
2019-02-11T20:54:41.203Z,96400.59
2019-02-11T20:57:30.942Z,96403.24
2019-02-11T21:00:22.268Z,96408.38
2019-02-11T21:03:12.070Z,96422.68
2019-02-11T21:06:02.466Z,96426.33
2019-02-11T21:08:53.573Z,96420.11
2019-02-11T21:11:43.506Z,96410.47
2019-02-11T21:14:34.086Z,96406.56
2019-02-11T21:17:24.165Z,96412.00
2019-02-11T21:20:32.480Z,96431.47
2019-02-11T21:23:41.389Z,96482.69
2019-02-11T21:26:31.091Z,96482.69
2019-02-11T21:29:39.996Z,96492.95
2019-02-11T21:32:29.904Z,96492.95
2019-02-11T21:35:20.400Z,96495.45
2019-02-11T21:38:10.254Z,96503.42
2019-02-11T21:41:00.743Z,96485.95
2019-02-11T21:44:09.405Z,96501.72
2019-02-11T21:46:59.360Z,96501.72
2019-02-11T21:50:09.068Z,96496.63
2019-02-11T21:53:01.151Z,96508.38
2019-02-11T21:55:50.830Z,96500.90
2019-02-11T21:58:40.854Z,96500.90
2019-02-11T22:01:31.011Z,96503.67
2019-02-11T22:04:20.703Z,96507.38
2019-02-11T22:07:11.043Z,96506.58
2019-02-11T22:10:00.848Z,96511.09
2019-02-11T22:12:50.687Z,96505.91
2019-02-11T22:15:40.197Z,96493.28
2019-02-11T22:18:30.136Z,96488.17
2019-02-11T22:21:39.045Z,96500.53
2019-02-11T22:24:28.944Z,96500.53
2019-02-11T22:27:18.408Z,96501.67
2019-02-11T22:30:10.781Z,96502.34
2019-02-11T22:33:00.804Z,96496.12
2019-02-11T22:35:50.323Z,96506.22
2019-02-11T22:38:40.268Z,96505.55
2019-02-11T22:41:29.959Z,96509.46
2019-02-11T22:44:19.412Z,96509.36
2019-02-11T22:47:08.924Z,96499.16
2019-02-11T22:49:59.309Z,96506.62
2019-02-11T22:52:49.562Z,96513.86
2019-02-11T22:55:39.324Z,96513.86
2019-02-11T22:58:28.787Z,96516.17
2019-02-11T23:04:34.102Z,96515.92
2019-02-11T23:07:23.834Z,96515.39
2019-02-11T23:10:13.461Z,96524.67
2019-02-11T23:13:03.244Z,96526.80
2019-02-11T23:15:52.954Z,96524.85
2019-02-11T23:18:42.426Z,96534.64
2019-02-11T23:21:32.928Z,96545.09
2019-02-11T23:24:22.877Z,96555.34
2019-02-11T23:27:13.078Z,96560.93
2019-02-11T23:30:03.020Z,96557.13
2019-02-11T23:32:52.557Z,96554.45
2019-02-11T23:35:42.319Z,96550.14
2019-02-11T23:38:32.378Z,96556.73
2019-02-11T23:41:22.857Z,96558.76
2019-02-11T23:44:12.382Z,96556.77
2019-02-11T23:47:02.580Z,96565.59
2019-02-11T23:49:52.072Z,96563.03
2019-02-11T23:52:41.777Z,96559.50
2019-02-11T23:55:31.735Z,96561.33
2019-02-11T23:58:21.527Z,96559.33
